createdAt,value
2017-11-27T00:02:04.773Z,6.53
2017-11-27T00:04:32.829Z,7.47
2017-11-27T00:07:00.859Z,6.60
2017-11-27T00:09:29.096Z,6.90
2017-11-27T00:11:57.148Z,7.50
2017-11-27T00:14:25.223Z,6.93
2017-11-27T00:16:53.461Z,7.37
2017-11-27T00:19:22.273Z,7.47
2017-11-27T00:21:50.553Z,6.27
2017-11-27T00:24:18.765Z,6.83
2017-11-27T00:26:46.917Z,7.30
2017-11-27T00:29:14.944Z,6.77
2017-11-27T00:31:43.082Z,7.87
2017-11-27T00:34:11.173Z,7.30
2017-11-27T00:36:39.261Z,7.70
2017-11-27T00:39:07.429Z,6.57
2017-11-27T00:41:35.452Z,7.60
2017-11-27T00:44:03.492Z,7.27
2017-11-27T00:46:32.441Z,7.10
2017-11-27T00:49:00.629Z,7.90
2017-11-27T00:51:28.648Z,7.90
2017-11-27T00:53:57.708Z,8.07
2017-11-27T00:56:29.720Z,7.80
2017-11-27T00:58:57.913Z,7.60
2017-11-27T01:01:26.043Z,7.33
2017-11-27T01:03:54.809Z,7.13
2017-11-27T01:06:22.980Z,6.80
2017-11-27T01:08:50.997Z,7.23
2017-11-27T01:11:19.178Z,7.57
2017-11-27T01:13:47.441Z,7.80
2017-11-27T01:16:16.220Z,8.03
2017-11-27T01:18:45.012Z,6.87
2017-11-27T01:21:13.887Z,8.27
2017-11-27T01:23:41.942Z,8.30
2017-11-27T01:26:09.964Z,7.80
2017-11-27T01:28:38.833Z,7.43
2017-11-27T01:31:07.757Z,8.20
2017-11-27T01:33:35.802Z,8.40
2017-11-27T01:51:45.455Z,8.07
2017-11-27T01:54:14.281Z,8.53
2017-11-27T01:56:42.413Z,8.00
2017-11-27T01:59:11.381Z,9.10
2017-11-27T02:01:39.457Z,8.13
2017-11-27T02:04:07.537Z,8.40
2017-11-27T02:06:35.672Z,9.20
2017-11-27T02:09:04.116Z,9.73
2017-11-27T02:11:32.877Z,8.87
2017-11-27T02:14:01.011Z,9.37
2017-11-27T02:16:29.056Z,7.60
2017-11-27T02:18:57.808Z,9.37
2017-11-27T02:21:26.032Z,8.73
2017-11-27T02:23:55.221Z,8.67
2017-11-27T02:26:23.417Z,10.07
2017-11-27T02:28:51.596Z,9.50
2017-11-27T02:31:19.619Z,10.13
2017-11-27T02:33:47.666Z,10.37
2017-11-27T02:36:15.885Z,9.23
2017-11-27T02:38:43.892Z,10.00
2017-11-27T02:41:11.998Z,10.57
2017-11-27T02:43:40.272Z,9.67
2017-11-27T02:46:08.461Z,10.10
2017-11-27T02:48:36.506Z,10.90
2017-11-27T02:51:04.772Z,10.07
2017-11-27T02:53:32.952Z,11.33
2017-11-27T02:56:01.070Z,10.80
2017-11-27T02:58:29.248Z,12.33
2017-11-27T03:00:57.340Z,11.43
2017-11-27T03:03:26.129Z,10.50
2017-11-27T03:05:55.100Z,11.70
2017-11-27T03:08:23.199Z,12.83
2017-11-27T03:10:52.036Z,12.00
2017-11-27T03:13:20.210Z,10.30
2017-11-27T03:15:48.288Z,13.00
2017-11-27T03:18:16.324Z,12.13
2017-11-27T03:20:44.889Z,11.17
2017-11-27T03:23:13.700Z,11.47
2017-11-27T03:25:41.745Z,12.83
2017-11-27T03:28:09.871Z,10.40
2017-11-27T03:30:37.911Z,12.50
2017-11-27T03:33:06.837Z,10.63
2017-11-27T03:35:35.152Z,11.90
2017-11-27T03:38:03.173Z,11.40
2017-11-27T03:40:31.192Z,11.77
2017-11-27T03:42:59.323Z,10.73
2017-11-27T03:45:27.386Z,10.67
2017-11-27T03:47:55.412Z,9.10
2017-11-27T03:50:23.554Z,10.77
2017-11-27T03:52:51.605Z,10.53
2017-11-27T03:55:19.648Z,10.27
2017-11-27T03:57:48.564Z,10.90
2017-11-27T04:00:16.637Z,10.57
2017-11-27T04:02:44.659Z,12.10
2017-11-27T04:05:12.792Z,10.80
2017-11-27T04:07:40.853Z,11.00
2017-11-27T04:10:08.913Z,12.20
2017-11-27T04:12:37.817Z,10.90
2017-11-27T04:15:06.611Z,11.30
2017-11-27T04:17:34.936Z,11.27
2017-11-27T04:20:03.193Z,10.67
2017-11-27T04:22:31.292Z,11.30
2017-11-27T04:24:59.333Z,9.83
2017-11-27T04:27:27.496Z,11.07
2017-11-27T04:29:55.572Z,10.60
2017-11-27T04:32:23.653Z,11.10
2017-11-27T04:34:51.824Z,10.57
2017-11-27T04:37:20.105Z,10.77
2017-11-27T04:39:48.209Z,10.73
2017-11-27T04:42:16.374Z,9.87
2017-11-27T04:44:44.412Z,9.93
2017-11-27T04:47:12.592Z,9.97
2017-11-27T04:49:40.792Z,10.83
2017-11-27T04:52:08.993Z,10.77
2017-11-27T04:54:37.032Z,10.37
2017-11-27T04:57:05.199Z,11.10
2017-11-27T04:59:33.343Z,10.63
2017-11-27T05:02:02.264Z,10.27
2017-11-27T05:04:30.435Z,11.47
2017-11-27T05:06:58.473Z,11.10
2017-11-27T05:09:27.305Z,10.03
2017-11-27T05:11:55.493Z,9.73
2017-11-27T05:14:23.528Z,11.57
2017-11-27T05:16:52.301Z,11.17
2017-11-27T05:19:21.220Z,11.53
2017-11-27T05:21:49.376Z,10.30
2017-11-27T05:24:18.301Z,11.80
2017-11-27T05:26:46.448Z,10.43
2017-11-27T05:29:15.249Z,9.60
2017-11-27T05:31:43.308Z,7.93
2017-11-27T05:34:12.229Z,7.10
2017-11-27T05:36:40.276Z,7.30
2017-11-27T05:39:09.060Z,7.40
2017-11-27T05:41:37.973Z,7.90
2017-11-27T05:44:06.017Z,8.23
2017-11-27T05:46:34.845Z,7.80
2017-11-27T05:49:03.025Z,8.90
2017-11-27T05:51:31.104Z,7.70
2017-11-27T05:53:59.154Z,7.80
2017-11-27T05:56:27.308Z,7.93
2017-11-27T05:58:56.240Z,7.53
2017-11-27T06:01:24.321Z,6.87
2017-11-27T06:03:52.461Z,7.50
2017-11-27T06:06:20.529Z,7.30
2017-11-27T06:08:49.313Z,7.30
2017-11-27T06:11:18.200Z,7.77
2017-11-27T06:13:46.972Z,7.17
2017-11-27T06:16:15.008Z,7.80
2017-11-27T06:18:43.211Z,7.40
2017-11-27T06:21:11.253Z,7.47
2017-11-27T06:23:39.308Z,7.10
2017-11-27T06:26:07.481Z,6.60
2017-11-27T06:28:35.532Z,6.00
2017-11-27T06:31:04.360Z,6.03
2017-11-27T06:33:32.508Z,5.90
2017-11-27T06:36:01.345Z,6.30
2017-11-27T06:38:29.539Z,6.50
2017-11-27T06:40:57.854Z,6.63
2017-11-27T06:43:26.772Z,6.90
2017-11-27T06:45:54.789Z,5.87
2017-11-27T06:48:23.001Z,6.07
2017-11-27T06:50:51.176Z,5.40
2017-11-27T06:53:19.217Z,5.63
2017-11-27T06:55:47.390Z,5.43
2017-11-27T06:58:15.408Z,6.00
2017-11-27T07:00:43.581Z,5.57
2017-11-27T07:03:11.740Z,6.23
2017-11-27T07:05:40.540Z,7.17
2017-11-27T07:08:08.644Z,5.37
2017-11-27T07:10:36.809Z,5.93
2017-11-27T07:13:04.973Z,6.43
2017-11-27T07:15:33.112Z,5.50
2017-11-27T07:18:01.997Z,5.60
2017-11-27T07:20:30.773Z,6.10
2017-11-27T07:22:58.829Z,6.83
2017-11-27T07:25:27.004Z,5.93
2017-11-27T07:27:55.017Z,6.30
2017-11-27T07:30:23.828Z,7.83
2017-11-27T07:32:52.056Z,7.00
2017-11-27T07:35:20.088Z,6.97
2017-11-27T07:37:53.715Z,7.70
2017-11-27T07:40:21.731Z,7.57
2017-11-27T07:42:50.536Z,7.43
2017-11-27T07:45:18.614Z,6.30
2017-11-27T07:47:46.664Z,5.83
2017-11-27T07:50:15.580Z,7.47
2017-11-27T07:52:43.624Z,7.07
2017-11-27T07:55:11.682Z,7.20
2017-11-27T07:57:39.753Z,6.80
2017-11-27T08:00:07.934Z,7.73
2017-11-27T08:02:36.120Z,6.77
2017-11-27T08:05:04.893Z,6.67
2017-11-27T08:07:33.069Z,7.07
2017-11-27T08:10:01.121Z,7.43
2017-11-27T08:12:29.297Z,7.20
2017-11-27T08:14:57.569Z,7.00
2017-11-27T08:17:25.624Z,7.27
2017-11-27T08:19:53.821Z,9.30
2017-11-27T08:22:21.969Z,7.30
2017-11-27T08:24:50.013Z,6.80
2017-11-27T08:27:18.785Z,6.70
2017-11-27T08:29:46.965Z,6.90
2017-11-27T08:32:15.010Z,7.17
2017-11-27T08:34:43.064Z,6.67
2017-11-27T08:37:11.244Z,7.03
2017-11-27T08:39:39.309Z,7.17
2017-11-27T08:42:07.338Z,6.33
2017-11-27T08:44:36.257Z,7.30
2017-11-27T08:47:04.325Z,6.23
2017-11-27T08:49:32.612Z,6.63
2017-11-27T08:52:00.780Z,6.67
2017-11-27T08:54:28.893Z,6.00
2017-11-27T08:56:56.984Z,7.23
2017-11-27T08:59:25.173Z,6.13
2017-11-27T09:01:53.228Z,6.63
2017-11-27T09:04:21.424Z,7.07
2017-11-27T09:06:50.372Z,7.03
2017-11-27T09:09:18.477Z,8.00
2017-11-27T09:11:46.576Z,8.20
2017-11-27T09:14:15.508Z,8.80
2017-11-27T09:16:43.565Z,7.90
2017-11-27T09:19:11.604Z,6.97
2017-11-27T09:21:40.584Z,7.60
2017-11-27T09:24:08.652Z,7.33
2017-11-27T09:26:36.691Z,8.47
2017-11-27T09:29:04.897Z,8.27
2017-11-27T09:31:33.102Z,9.40
2017-11-27T09:34:01.942Z,8.20
2017-11-27T09:36:30.114Z,8.70
2017-11-27T09:38:58.212Z,8.33
2017-11-27T09:41:26.388Z,8.63
2017-11-27T09:43:54.576Z,7.70
2017-11-27T09:46:22.621Z,7.23
2017-11-27T09:48:50.700Z,7.80
2017-11-27T09:51:19.025Z,7.90
2017-11-27T09:53:47.821Z,7.80
2017-11-27T09:56:15.904Z,7.87
2017-11-27T09:58:44.064Z,7.90
2017-11-27T10:01:12.962Z,7.67
2017-11-27T10:03:41.013Z,7.93
2017-11-27T10:06:10.105Z,6.97
2017-11-27T10:08:38.181Z,7.00
2017-11-27T10:11:06.974Z,7.30
2017-11-27T10:13:35.905Z,8.10
2017-11-27T10:16:03.994Z,8.37
2017-11-27T10:18:32.024Z,7.30
2017-11-27T10:21:01.092Z,7.20
2017-11-27T10:23:29.224Z,6.40
2017-11-27T10:25:57.274Z,5.27
2017-11-27T10:28:25.488Z,7.10
2017-11-27T10:30:53.578Z,6.10
2017-11-27T10:33:21.641Z,5.60
2017-11-27T10:35:49.850Z,6.77
2017-11-27T10:38:18.829Z,7.17
2017-11-27T10:40:47.740Z,6.97
2017-11-27T10:43:16.644Z,7.20
2017-11-27T10:45:45.440Z,6.70
2017-11-27T10:48:13.641Z,7.33
2017-11-27T10:50:41.881Z,6.43
2017-11-27T10:53:10.695Z,7.60
2017-11-27T10:55:38.816Z,6.70
2017-11-27T10:58:07.024Z,6.40
2017-11-27T11:00:53.408Z,6.30
2017-11-27T11:03:22.328Z,6.60
2017-11-27T11:05:50.349Z,7.60
2017-11-27T11:08:18.540Z,7.63
2017-11-27T11:10:46.732Z,7.20
2017-11-27T11:13:15.515Z,6.53
2017-11-27T11:15:43.609Z,7.47
2017-11-27T11:18:12.508Z,7.30
2017-11-27T11:20:40.581Z,7.20
2017-11-27T11:23:08.648Z,5.53
2017-11-27T11:25:37.552Z,7.40
2017-11-27T11:28:05.593Z,7.60
2017-11-27T11:30:34.650Z,6.33
2017-11-27T11:33:02.858Z,6.87
2017-11-27T11:35:30.961Z,6.30
2017-11-27T11:37:59.008Z,6.77
2017-11-27T11:40:27.928Z,38.10
2017-11-27T11:42:55.960Z,6.33
2017-11-27T11:45:24.881Z,7.23
2017-11-27T11:47:53.781Z,6.83
2017-11-27T11:50:22.598Z,6.63
2017-11-27T11:52:50.699Z,7.33
2017-11-27T11:55:18.933Z,7.63
2017-11-27T11:57:47.327Z,8.30
2017-11-27T12:00:15.532Z,7.77
2017-11-27T12:02:43.680Z,7.57
2017-11-27T12:05:11.781Z,7.57
2017-11-27T12:07:39.900Z,7.67
2017-11-27T12:10:08.782Z,6.93
2017-11-27T12:12:37.616Z,7.47
2017-11-27T12:15:05.723Z,7.07
2017-11-27T12:17:33.925Z,7.43
2017-11-27T12:20:02.742Z,7.80
2017-11-27T12:22:30.918Z,7.80
2017-11-27T12:24:59.073Z,7.30
2017-11-27T12:27:27.875Z,5.90
2017-11-27T13:01:23.956Z,9.13
2017-11-27T13:03:52.036Z,8.63
2017-11-27T13:06:20.165Z,6.97
2017-11-27T13:08:48.980Z,7.33
2017-11-27T13:11:17.461Z,7.80
2017-11-27T13:13:45.496Z,7.80
2017-11-27T13:16:14.288Z,8.23
2017-11-27T13:18:43.192Z,7.40
2017-11-27T13:21:11.988Z,7.60
2017-11-27T13:23:40.038Z,7.37
2017-11-27T13:26:08.956Z,8.57
2017-11-27T13:28:36.980Z,7.80
2017-11-27T13:31:05.041Z,8.17
2017-11-27T13:33:33.177Z,8.53
2017-11-27T13:36:01.196Z,8.57
2017-11-27T13:38:29.228Z,8.73
2017-11-27T13:40:57.377Z,8.23
2017-11-27T13:43:26.156Z,7.47
2017-11-27T13:45:55.080Z,8.50
2017-11-27T13:48:23.277Z,13.80
2017-11-27T13:50:51.342Z,9.47
2017-11-27T13:53:19.388Z,8.27
2017-11-27T13:55:47.697Z,9.07
2017-11-27T14:11:22.608Z,8.00
2017-11-27T14:13:50.691Z,8.17
2017-11-27T14:16:18.742Z,7.60
2017-11-27T14:18:46.877Z,7.63
2017-11-27T14:21:14.933Z,8.90
2017-11-27T14:23:42.974Z,9.27
2017-11-27T14:26:11.714Z,11.07
2017-11-27T14:28:40.495Z,11.20
2017-11-27T14:31:08.609Z,9.07
2017-11-27T14:33:36.789Z,8.77
2017-11-27T14:36:04.816Z,9.57
2017-11-27T14:38:33.145Z,9.67
2017-11-27T14:41:01.537Z,9.30
2017-11-27T14:43:29.625Z,9.53
2017-11-27T14:45:59.546Z,9.70
2017-11-27T14:48:28.278Z,8.30
2017-11-27T14:50:57.510Z,9.43
2017-11-27T14:53:25.772Z,8.97
2017-11-27T14:55:54.056Z,8.80
2017-11-27T14:58:22.205Z,8.60
2017-11-27T15:00:51.151Z,8.70
2017-11-27T15:03:19.502Z,9.40
2017-11-27T15:05:47.657Z,9.23
2017-11-27T15:08:16.684Z,8.80
2017-11-27T15:10:45.033Z,7.93
2017-11-27T15:13:14.140Z,8.77
2017-11-27T15:15:43.176Z,9.27
2017-11-27T15:18:11.597Z,9.20
2017-11-27T15:20:40.613Z,8.97
2017-11-27T15:23:09.632Z,9.20
2017-11-27T15:25:38.062Z,8.23
2017-11-27T15:28:06.332Z,8.50
2017-11-27T15:30:34.648Z,8.73
2017-11-27T15:33:03.049Z,8.13
2017-11-27T15:35:31.357Z,8.83
2017-11-27T15:37:59.645Z,8.67
2017-11-27T15:40:28.049Z,9.37
2017-11-27T15:42:57.079Z,9.57
2017-11-27T15:45:25.385Z,8.63
2017-11-27T15:47:53.788Z,8.27
2017-11-27T15:50:22.153Z,8.93
2017-11-27T15:52:50.484Z,9.13
2017-11-27T15:55:18.933Z,9.33
2017-11-27T15:57:47.275Z,11.20
2017-11-27T16:00:15.737Z,9.83
2017-11-27T16:02:44.108Z,9.50
2017-11-27T16:05:12.396Z,10.37
2017-11-27T16:07:40.591Z,9.80
2017-11-27T16:10:08.905Z,10.90
2017-11-27T16:12:37.172Z,10.40
2017-11-27T16:15:05.593Z,13.20
2017-11-27T16:17:33.908Z,10.13
2017-11-27T16:20:02.078Z,10.03
2017-11-27T16:22:30.280Z,11.60
2017-11-27T16:24:58.649Z,12.27
2017-11-27T16:27:26.922Z,12.07
2017-11-27T16:29:55.069Z,11.30
2017-11-27T16:32:23.296Z,11.00
2017-11-27T16:34:51.489Z,11.60
2017-11-27T16:37:20.455Z,11.73
2017-11-27T16:39:48.757Z,15.00
2017-11-27T16:42:17.623Z,12.73
2017-11-27T16:44:45.750Z,22.97
2017-11-27T16:47:14.113Z,14.90
2017-11-27T16:49:43.039Z,13.20
2017-11-27T16:52:11.273Z,13.17
2017-11-27T16:54:40.271Z,12.20
2017-11-27T16:57:09.147Z,11.10
2017-11-27T16:59:37.301Z,11.23
2017-11-27T17:02:05.576Z,12.90
2017-11-27T17:04:33.731Z,10.47
2017-11-27T17:07:01.999Z,11.53
2017-11-27T17:09:30.285Z,11.20
2017-11-27T17:11:58.385Z,10.73
2017-11-27T17:14:26.568Z,11.00
2017-11-27T17:16:55.041Z,10.60
2017-11-27T17:19:23.252Z,11.10
2017-11-27T17:21:52.293Z,10.70
2017-11-27T17:24:20.744Z,10.70
2017-11-27T17:26:49.713Z,11.63
2017-11-27T17:29:17.862Z,10.73
2017-11-27T17:31:46.201Z,11.27
2017-11-27T17:34:14.352Z,11.63
2017-11-27T17:36:43.415Z,11.27
2017-11-27T17:39:11.773Z,12.83
2017-11-27T17:41:40.158Z,11.63
2017-11-27T17:44:08.410Z,12.80
2017-11-27T17:46:36.652Z,13.33
2017-11-27T17:49:04.810Z,13.00
2017-11-27T17:51:33.113Z,14.97
2017-11-27T17:54:02.233Z,15.27
2017-11-27T17:56:30.454Z,14.77
2017-11-27T17:58:58.645Z,13.27
2017-11-27T18:01:26.895Z,13.60
2017-11-27T18:03:55.054Z,12.70
2017-11-27T18:06:23.265Z,13.97
2017-11-27T18:08:51.519Z,14.30
2017-11-27T18:11:19.709Z,13.40
2017-11-27T18:13:47.784Z,12.63
2017-11-27T18:16:16.033Z,12.00
2017-11-27T18:18:44.417Z,12.37
2017-11-27T18:21:12.806Z,12.80
2017-11-27T18:23:41.154Z,12.60
2017-11-27T18:26:09.376Z,13.83
2017-11-27T18:28:37.572Z,16.90
2017-11-27T18:31:05.977Z,14.70
2017-11-27T18:33:34.864Z,13.57
2017-11-27T18:36:03.724Z,11.93
2017-11-27T18:38:32.157Z,16.37
2017-11-27T18:41:00.577Z,14.90
2017-11-27T18:43:28.920Z,15.87
2017-11-27T18:45:57.370Z,16.00
2017-11-27T18:48:26.383Z,15.53
2017-11-27T18:50:55.328Z,14.77
2017-11-27T18:53:23.533Z,15.67
2017-11-27T18:55:52.432Z,15.50
2017-11-27T18:58:21.389Z,16.80
2017-11-27T19:00:49.899Z,18.33
2017-11-27T19:03:18.817Z,19.60
2017-11-27T19:05:46.904Z,17.17
2017-11-27T19:08:15.201Z,18.53
2017-11-27T19:10:43.463Z,18.40
2017-11-27T19:13:11.634Z,16.80
2017-11-27T19:15:39.979Z,15.90
2017-11-27T19:18:08.948Z,16.97
2017-11-27T19:20:37.356Z,15.37
2017-11-27T19:23:06.364Z,15.27
2017-11-27T19:25:35.268Z,14.80
2017-11-27T19:28:03.430Z,14.70
2017-11-27T19:30:32.558Z,14.37
2017-11-27T19:33:00.648Z,15.33
2017-11-27T19:35:28.749Z,15.50
2017-11-27T19:37:57.044Z,14.00
2017-11-27T19:40:25.980Z,14.53
2017-11-27T19:42:54.193Z,13.83
2017-11-27T19:45:22.377Z,13.80
2017-11-27T19:47:50.572Z,14.33
2017-11-27T19:50:19.464Z,14.30
2017-11-27T19:52:48.606Z,14.53
2017-11-27T19:55:16.722Z,14.93
2017-11-27T19:57:45.725Z,15.20
2017-11-27T20:00:15.043Z,13.80
2017-11-27T20:02:43.225Z,14.37
2017-11-27T20:05:11.330Z,14.67
2017-11-27T20:07:39.733Z,14.40
2017-11-27T20:10:07.918Z,13.40
2017-11-27T20:12:36.108Z,16.30
2017-11-27T20:15:05.212Z,12.93
2017-11-27T20:17:34.164Z,15.43
2017-11-27T20:20:02.308Z,15.97
2017-11-27T20:22:30.876Z,14.77
2017-11-27T20:24:59.152Z,16.60
2017-11-27T20:27:27.454Z,17.57
2017-11-27T20:29:55.889Z,15.33
2017-11-27T20:32:24.920Z,16.67
2017-11-27T20:34:53.196Z,16.47
2017-11-27T20:37:21.628Z,15.10
2017-11-27T20:39:49.945Z,16.70
2017-11-27T20:42:18.262Z,15.60
2017-11-27T20:44:46.699Z,14.43
2017-11-27T20:47:15.708Z,14.87
2017-11-27T20:49:44.000Z,14.57
2017-11-27T20:52:12.387Z,15.90
2017-11-27T20:54:40.698Z,15.57
2017-11-27T20:57:09.013Z,16.13
2017-11-27T20:59:37.281Z,16.73
2017-11-27T21:02:06.405Z,17.10
2017-11-27T21:04:34.584Z,16.23
2017-11-27T21:07:02.769Z,15.97
2017-11-27T21:09:30.984Z,15.10
2017-11-27T21:11:59.100Z,16.90
2017-11-27T21:14:27.441Z,16.27
2017-11-27T21:16:55.680Z,16.97
2017-11-27T21:19:23.937Z,17.40
2017-11-27T21:21:52.414Z,17.00
2017-11-27T21:24:20.850Z,17.70
2017-11-27T21:26:49.000Z,17.07
2017-11-27T21:29:17.408Z,17.90
2017-11-27T21:31:45.594Z,17.50
2017-11-27T21:34:14.569Z,17.87
2017-11-27T21:36:42.889Z,16.50
2017-11-27T21:39:11.349Z,17.77
2017-11-27T21:41:40.301Z,17.77
2017-11-27T21:44:08.604Z,18.37
2017-11-27T21:46:36.736Z,19.13
2017-11-27T21:49:04.877Z,17.43
2017-11-27T21:51:33.805Z,19.10
2017-11-27T21:54:01.934Z,17.43
2017-11-27T21:56:30.056Z,19.50
2017-11-27T21:58:58.413Z,19.00
2017-11-27T22:01:26.981Z,19.87
2017-11-27T22:03:55.792Z,19.40
2017-11-27T22:06:24.006Z,18.00
2017-11-27T22:08:52.204Z,18.80
2017-11-27T22:11:20.288Z,19.23
2017-11-27T22:13:48.484Z,19.13
2017-11-27T22:16:17.377Z,19.70
2017-11-27T22:18:46.172Z,19.40
2017-11-27T22:21:14.429Z,19.10
2017-11-27T22:23:43.313Z,18.60
2017-11-27T22:26:11.688Z,19.50
2017-11-27T22:28:40.048Z,17.53
2017-11-27T22:31:09.020Z,18.50
2017-11-27T22:33:37.169Z,19.67
2017-11-27T22:36:05.500Z,17.90
2017-11-27T22:38:33.741Z,18.17
2017-11-27T22:41:01.817Z,19.10
2017-11-27T22:43:30.040Z,19.37
2017-11-27T22:45:58.161Z,18.70
2017-11-27T22:48:26.204Z,19.80
2017-11-27T22:50:55.221Z,19.53
2017-11-27T22:53:23.481Z,18.20
2017-11-27T22:55:52.496Z,19.60
2017-11-27T22:58:20.837Z,20.40
2017-11-27T23:00:48.872Z,18.33
2017-11-27T23:03:16.955Z,19.63
2017-11-27T23:05:45.188Z,18.37
2017-11-27T23:08:13.272Z,20.00
2017-11-27T23:10:41.380Z,18.70
2017-11-27T23:13:09.608Z,19.50
2017-11-27T23:15:37.857Z,19.30
2017-11-27T23:18:06.129Z,19.33
2017-11-27T23:20:34.564Z,19.40
2017-11-27T23:23:02.740Z,20.10
2017-11-27T23:25:30.852Z,19.60
2017-11-27T23:27:59.333Z,18.47
2017-11-27T23:30:27.408Z,19.73
2017-11-27T23:32:55.606Z,21.70
2017-11-27T23:35:24.572Z,22.37
2017-11-27T23:37:52.864Z,21.63
2017-11-27T23:40:20.987Z,24.60
2017-11-27T23:42:49.392Z,21.40
2017-11-27T23:45:17.481Z,22.20
2017-11-27T23:47:45.624Z,23.10
2017-11-27T23:50:14.049Z,23.03
2017-11-27T23:52:42.132Z,22.47
2017-11-27T23:55:10.937Z,22.70
2017-11-27T23:57:39.960Z,23.83
